Latest Weather Observations for Warrnambool

IDV60801

Issued at 11:02 am EDT Saturday 28 March 2015 (issued every 30 minutes, with the page automatically refreshed every 10 minutes)

About weather observations | Map of weather stations | Latest weather observations for VIC | Other Formats
Station Details ID: 090186 Name: WARRNAMBOOL AIRPORT NDB Lat: -38.29 Lon: 142.45 Height: 70.8 m
Data from the previous 72 hours. | See also: Recent months at Warrnambool
Date/Time
EDT
Temp
°C
App
Temp
°C
Dew
Point
Rel
Hum
%
Delta-T
°C
Wind Press
QNH
hPa
Press
MSL
hPa
Rain
since 9 am
mm
Dir
 
Spd
km/h
Gust
km/h
Spd
kts
Gust
kts
28/11:00am 13.2 10.2 10.6 84 1.4 NW 17 22 9 12 1025.9 1025.8 0.0
28/10:30am 14.4 11.5 12.4 88 1.1 NNW 19 24 10 13 1026.1 1026.0 0.0
28/10:25am 13.9 11.0 12.3 90 0.9 NW 19 24 10 13 1026.2 1026.1 0.0
28/10:00am 12.6 9.3 11.5 93 0.6 NW 20 26 11 14 1026.2 1026.1 0.0
28/09:45am 12.9 10.4 12.3 96 0.3 NW 17 22 9 12 1026.2 1026.1 0.0
28/09:30am 12.6 9.7 12.3 98 0.2 NW 19 24 10 13 1026.1 1026.0 0.0
28/09:00am 12.0 10.1 11.8 99 0.1 NNW 13 19 7 10 1026.2 1026.1 0.6
28/08:30am 11.5 9.8 11.3 99 0.1 NNW 11 13 6 7 1025.9 1025.8 0.6
28/08:00am 11.3 10.0 11.1 99 0.1 NNW 9 11 5 6 1025.6 1025.5 0.6
28/07:30am 11.2 9.8 11.0 99 0.1 NW 9 13 5 7 1025.4 1025.3 0.6
28/07:00am 11.2 10.2 11.0 99 0.1 NW 7 11 4 6 1025.2 1025.1 0.4
28/06:30am 11.2 9.8 11.0 99 0.1 NW 9 13 5 7 1025.0 1024.9 0.4
28/06:00am 10.7 9.2 10.5 99 0.1 NW 9 11 5 6 1024.9 1024.8 0.4
28/05:30am 11.1 9.3 10.9 99 0.1 NW 11 15 6 8 1024.9 1024.8 0.4
28/05:01am 11.2 9.1 11.0 99 0.1 NNW 13 15 7 8 1024.9 1024.8 0.4
28/05:00am 11.2 9.1 11.0 99 0.1 NNW 13 15 7 8 1024.9 1024.8 0.4
28/04:30am 11.2 9.4 11.0 99 0.1 NNW 11 13 6 7 1024.8 1024.7 0.4
28/04:00am 11.4 10.5 11.2 99 0.1 N 7 11 4 6 1025.0 1024.9 0.4
28/03:56am 11.4 10.5 11.2 99 0.1 N 7 7 4 4 1025.0 1024.9 0.4
28/03:30am 11.4 10.6 11.2 99 0.1 NNE 6 9 3 5 1025.2 1025.1 0.4
28/03:00am 11.5 10.6 11.3 99 0.1 N 7 9 4 5 1025.4 1025.3 0.4
28/02:55am 11.5 10.6 11.3 99 0.1 N 7 9 4 5 1025.4 1025.3 0.4
28/02:30am 11.5 10.2 11.3 99 0.1 NW 9 13 5 7 1025.6 1025.5 0.4
28/02:20am 11.5 10.6 11.3 99 0.1 NW 7 11 4 6 1025.7 1025.6 0.0
28/02:02am 11.5 10.2 11.3 99 0.1 NW 9 11 5 6 1025.7 1025.6 0.0
28/02:00am 11.5 10.2 11.3 99 0.1 NW 9 11 5 6 1025.7 1025.6 0.0
28/01:47am 11.6 12.0 11.4 99 0.1 CALM 0 6 0 3 1025.7 1025.6 0.0
28/01:30am 11.6 12.0 11.4 99 0.1 CALM 0 0 0 0 1025.8 1025.7 0.0
28/01:00am 11.7 12.2 11.5 99 0.1 CALM 0 0 0 0 1025.9 1025.8 0.0
28/12:30am 11.6 10.9 11.4 99 0.1 NNW 6 7 3 4 1025.9 1025.8 0.0
28/12:00am 11.4 10.1 11.1 98 0.2 NW 9 11 5 6 1026.0 1025.9 0.0
 
Date/Time
EDT
Temp
°C
App
Temp
°C
Dew
Point
Rel
Hum
%
Delta-T
°C
Wind Press
QNH
hPa
Press
MSL
hPa
Rain
since 9 am
mm
Dir
 
Spd
km/h
Gust
km/h
Spd
kts
Gust
kts
27/11:30pm 11.7 10.9 11.2 97 0.3 NW 6 7 3 4 1026.2 1026.1 0.0
27/11:00pm 11.8 10.5 11.3 97 0.3 W 9 13 5 7 1026.3 1026.2 0.0
27/10:56pm 11.9 9.9 11.4 97 0.3 WSW 13 19 7 10 1026.3 1026.2 0.0
27/10:33pm 12.3 9.1 11.4 94 0.5 SW 19 24 10 13 1026.5 1026.4 0.0
27/10:30pm 12.3 8.8 11.0 92 0.7 SW 20 26 11 14 1026.5 1026.4 0.0
27/10:00pm 12.6 10.2 10.0 84 1.3 SW 13 15 7 8 1026.3 1026.2 0.0
27/09:30pm 12.6 9.9 10.3 86 1.2 SW 15 20 8 11 1026.2 1026.1 0.0
27/09:00pm 12.5 11.0 10.7 89 0.9 SW 9 11 5 6 1026.1 1026.0 0.0
27/08:30pm 12.3 10.5 10.7 90 0.8 SW 11 13 6 7 1026.0 1025.9 0.0
27/08:00pm 12.4 10.5 10.6 89 0.9 SW 11 13 6 7 1025.9 1025.8 0.0
27/07:30pm 12.3 10.1 10.7 90 0.8 WSW 13 17 7 9 1025.6 1025.5 0.0
27/07:12pm 12.0 9.1 10.9 93 0.6 W 17 22 9 12 1025.5 1025.4 0.0
27/07:00pm 12.0 8.2 11.1 94 0.5 WSW 22 28 12 15 1025.6 1025.5 0.0
27/06:52pm 12.4 7.6 11.5 94 0.5 SW 28 35 15 19 1025.6 1025.5 0.0
27/06:30pm 13.8 9.4 9.0 73 2.4 SSW 22 28 12 15 1025.2 1025.1 0.0
27/05:30pm 14.9 9.9 9.7 71 2.7 SW 26 35 14 19 1025.0 1024.9 0.0
27/05:00pm 14.4 9.3 10.6 78 2.0 SSW 28 35 15 19 1025.0 1024.9 0.0
27/04:30pm 14.8 10.0 11.6 81 1.7 SW 28 37 15 20 1024.9 1024.8 0.0
27/04:00pm 15.7 11.5 11.1 74 2.5 SW 24 35 13 19 1024.9 1024.8 0.0
27/03:30pm 15.3 10.3 9.7 69 2.9 SW 26 33 14 18 1024.9 1024.8 0.0
27/03:00pm 14.1 9.1 11.1 82 1.6 SW 28 35 15 19 1025.1 1025.0 0.0
27/02:30pm 15.4 10.7 10.8 74 2.4 SW 26 35 14 19 1025.2 1025.1 0.0
27/02:00pm 14.6 9.2 9.6 72 2.6 SW 28 35 15 19 1025.4 1025.3 0.0
27/01:30pm 15.3 11.9 11.3 77 2.1 SW 20 32 11 17 1025.6 1025.5 0.0
27/01:00pm 14.3 9.6 10.5 78 2.0 WSW 26 35 14 19 1026.0 1025.9 0.0
27/12:30pm 13.9 8.3 8.9 72 2.5 SW 28 35 15 19 1026.1 1026.0 0.0
27/12:00pm 14.7 9.2 9.1 69 2.9 SW 28 35 15 19 1025.9 1025.8 0.0
27/11:30am 13.3 7.8 9.2 76 2.1 SW 28 35 15 19 1025.9 1025.8 0.0
27/11:00am 13.2 6.8 8.5 73 2.3 SW 32 43 17 23 1025.7 1025.6 0.0
27/10:30am 12.7 6.5 9.3 80 1.7 SW 32 43 17 23 1025.6 1025.5 0.0
27/10:00am 13.2 7.5 8.3 72 2.4 SW 28 39 15 21 1025.3 1025.2 0.0
27/09:30am 13.0 7.2 9.4 79 1.8 SW 30 37 16 20 1025.0 1024.9 0.0
27/09:00am 12.7 7.5 10.1 84 1.3 SW 28 33 15 18 1024.8 1024.7 20.2
27/08:30am 12.0 6.5 9.2 83 1.4 SW 28 35 15 19 1024.5 1024.4 20.2
27/08:00am 12.1 6.6 9.3 83 1.4 SW 28 35 15 19 1024.0 1023.9 20.2
27/07:30am 12.1 7.0 9.3 83 1.4 SW 26 41 14 22 1023.8 1023.7 20.2
27/07:00am 12.1 6.4 9.7 85 1.2 SW 30 41 16 22 1023.5 1023.4 20.2
27/06:30am 11.9 6.0 8.9 82 1.5 SW 30 39 16 21 1023.1 1023.0 20.2
27/06:15am 11.4 5.7 9.7 89 0.9 WSW 30 41 16 22 1022.9 1022.8 20.2
27/06:00am 11.5 6.4 10.7 95 0.4 SW 28 37 15 20 1023.0 1022.9 19.8
27/05:57am 11.5 6.4 10.7 95 0.4 SW 28 46 15 25 1022.9 1022.8 19.8
27/05:44am 11.7 4.5 10.6 93 0.6 SW 39 52 21 28 1022.9 1022.8 19.4
27/05:30am 12.4 6.2 10.0 85 1.2 SW 33 44 18 24 1022.7 1022.6 19.2
27/05:00am 12.1 5.8 9.7 85 1.2 SW 33 50 18 27 1022.4 1022.3 19.2
27/04:55am 12.6 6.7 10.5 87 1.1 SW 32 50 17 27 1022.4 1022.3 19.2
27/04:30am 12.3 6.7 10.2 87 1.1 WSW 30 37 16 20 1022.2 1022.1 19.2
27/04:00am 12.5 6.3 10.0 85 1.3 SW 33 44 18 24 1022.1 1022.0 19.2
27/03:30am 12.5 6.5 10.2 86 1.2 WSW 32 41 17 22 1022.0 1021.9 19.2
27/03:00am 12.4 8.0 10.5 88 1.0 SW 24 32 13 17 1021.9 1021.8 19.2
27/02:30am 12.1 4.9 10.7 91 0.7 SW 39 52 21 28 1021.9 1021.8 19.2
27/02:00am 12.4 6.3 10.6 89 0.9 WSW 33 52 18 28 1021.8 1021.7 19.0
27/01:57am 12.7 7.3 10.9 89 0.9 WSW 30 52 16 28 1021.8 1021.7 19.0
27/01:30am 12.1 7.2 10.0 87 1.1 WSW 26 41 14 22 1021.6 1021.5 19.0
27/01:18am 12.4 6.6 11.6 95 0.4 WSW 33 46 18 25 1021.6 1021.5 19.0
27/01:06am 11.9 5.7 11.3 96 0.3 SW 35 56 19 30 1021.8 1021.7 18.6
27/01:02am 11.9 4.1 11.1 95 0.4 SW 43 56 23 30 1021.8 1021.7 18.6
27/01:00am 12.0 4.0 11.1 94 0.5 SW 44 56 24 30 1021.9 1021.8 18.4
27/12:50am 12.8 6.8 10.7 87 1.1 SW 33 52 18 28 1021.6 1021.5 18.0
27/12:30am 12.3 5.5 10.7 90 0.8 SW 37 54 20 29 1021.5 1021.4 17.8
27/12:28am 12.4 6.0 10.6 89 0.9 SW 35 54 19 29 1021.6 1021.5 17.8
27/12:26am 12.5 6.5 10.9 90 0.8 SW 33 46 18 25 1021.6 1021.5 17.8
27/12:07am 12.0 5.2 10.7 92 0.7 SW 37 59 20 32 1021.6 1021.5 17.4
27/12:05am 12.7 6.3 10.8 88 1.0 SW 35 59 19 32 1021.6 1021.5 17.0
27/12:00am 13.0 6.6 10.7 86 1.2 SW 35 44 19 24 1021.4 1021.3 16.6
 
Date/Time
EDT
Temp
°C
App
Temp
°C
Dew
Point
Rel
Hum
%
Delta-T
°C
Wind Press
QNH
hPa
Press
MSL
hPa
Rain
since 9 am
mm
Dir
 
Spd
km/h
Gust
km/h
Spd
kts
Gust
kts
26/11:42pm 12.6 5.8 10.8 89 0.9 SW 37 52 20 28 1021.3 1021.2 16.6
26/11:31pm 12.1 4.3 11.2 94 0.5 WSW 43 57 23 31 1021.3 1021.2 16.6
26/11:30pm 12.1 4.3 11.2 94 0.5 SW 43 57 23 31 1021.3 1021.2 16.6
26/11:00pm 13.3 6.9 10.7 84 1.4 SW 35 52 19 28 1021.0 1020.9 16.4
26/10:30pm 13.1 7.3 10.8 86 1.2 WSW 32 43 17 23 1020.8 1020.7 16.4
26/10:00pm 13.2 6.3 10.4 83 1.5 SW 37 54 20 29 1020.7 1020.6 16.4
26/09:30pm 13.0 7.3 11.1 88 1.0 WSW 32 41 17 22 1020.2 1020.1 16.4
26/09:08pm 13.0 6.9 10.4 84 1.4 SW 33 52 18 28 1019.9 1019.8 16.0
26/09:00pm 12.8 5.8 9.8 82 1.5 SW 37 52 20 28 1019.9 1019.8 16.0
26/08:42pm 13.0 7.4 11.4 90 0.8 WSW 32 52 17 28 1019.6 1019.5 15.8
26/08:30pm 13.3 7.2 10.5 83 1.5 WSW 33 48 18 26 1019.4 1019.3 15.6
26/08:00pm 12.9 6.7 9.9 82 1.5 WSW 33 48 18 26 1019.1 1019.0 15.6
26/07:31pm 13.2 5.8 10.0 81 1.7 WSW 39 57 21 31 1018.5 1018.4 15.6
26/07:30pm 13.2 5.5 10.0 81 1.7 SW 41 57 22 31 1018.5 1018.4 15.6
26/07:00pm 13.4 6.0 10.0 80 1.8 WSW 39 57 21 31 1017.9 1017.8 15.6
26/06:58pm 13.3 6.3 9.9 80 1.8 WSW 37 57 20 31 1017.8 1017.7 15.6
26/06:30pm 13.0 7.0 10.7 86 1.2 WSW 33 44 18 24 1017.4 1017.3 15.6
26/06:00pm 12.6 7.2 12.1 97 0.3 WSW 32 44 17 24 1016.9 1016.8 15.6
26/05:47pm 12.7 6.0 12.2 97 0.3 WSW 39 54 21 29 1016.7 1016.6 14.6
26/05:37pm 12.5 5.4 12.3 99 0.1 WSW 41 61 22 33 1016.7 1016.6 14.6
26/05:30pm 12.5 5.0 12.2 98 0.2 W 43 63 23 34 1016.5 1016.4 14.0
26/05:25pm 12.4 4.6 11.9 97 0.3 WSW 44 63 24 34 1016.3 1016.2 13.0
26/05:15pm 12.1 4.3 11.2 94 0.5 WSW 43 57 23 31 1016.3 1016.2 13.0
26/05:05pm 11.8 3.9 10.9 94 0.5 WSW 43 59 23 32 1016.1 1015.9 13.0
26/05:01pm 11.6 3.5 10.7 94 0.5 WSW 44 61 24 33 1016.0 1015.8 13.0
26/05:00pm 11.6 3.5 10.8 95 0.4 WSW 44 61 24 33 1016.0 1015.8 13.0
26/04:55pm 11.8 3.2 11.6 99 0.1 WSW 48 67 26 36 1016.1 1015.9 12.8
26/04:50pm 12.2 3.7 11.9 98 0.2 WSW 48 67 26 36 1016.0 1015.8 12.2
26/04:32pm 12.9 4.8 12.1 95 0.4 W 46 67 25 36 1015.7 1015.5 7.2
26/04:30pm 12.9 4.8 12.0 94 0.5 W 46 67 25 36 1015.7 1015.5 7.2
26/04:12pm 13.1 4.9 11.8 92 0.7 W 46 65 25 35 1015.3 1015.1 6.8
26/04:06pm 13.1 4.6 12.0 93 0.6 W 48 65 26 35 1015.5 1015.3 6.8
26/04:00pm 13.0 4.9 11.9 93 0.6 W 46 69 25 37 1015.4 1015.2 6.8
26/03:55pm 12.9 4.4 12.1 95 0.4 W 48 69 26 37 1015.3 1015.1 6.8
26/03:30pm 12.0 4.3 11.4 96 0.3 W 43 67 23 36 1015.0 1014.8 6.0
26/03:00pm 11.6 5.7 11.1 97 0.3 WNW 33 52 18 28 1015.1 1014.9 4.2
26/02:54pm 11.6 5.7 11.1 97 0.3 WNW 33 52 18 28 1015.2 1015.0 3.4
26/02:53pm 11.6 5.3 11.1 97 0.3 WNW 35 52 19 28 1015.1 1014.9 3.4
26/02:47pm 11.4 3.9 10.9 97 0.3 NW 41 59 22 32 1015.1 1014.9 3.0
26/02:30pm 11.5 2.6 10.7 95 0.4 NW 48 61 26 33 1014.7 1014.5 2.2
26/02:28pm 11.4 2.5 10.5 94 0.5 NW 48 61 26 33 1014.9 1014.7 2.2
26/02:24pm 11.5 2.9 10.4 93 0.6 NW 46 59 25 32 1015.0 1014.8 1.8
26/02:01pm 11.1 2.9 9.7 91 0.7 NW 43 61 23 33 1015.4 1015.2 1.4
26/02:00pm 11.1 3.3 9.7 91 0.7 NW 41 57 22 31 1015.4 1015.2 1.4
26/01:49pm 11.1 3.7 9.7 91 0.7 NW 39 50 21 27 1015.6 1015.4 1.2
26/01:30pm 11.8 4.6 9.0 83 1.4 WNW 37 57 20 31 1015.8 1015.6 1.0
26/01:00pm 11.8 3.7 8.5 80 1.6 NW 41 70 22 38 1016.0 1015.8 0.8
26/12:30pm 11.4 4.4 8.4 82 1.5 WNW 35 59 19 32 1016.6 1016.5 0.8
26/12:00pm 12.3 5.5 9.1 81 1.6 NW 35 57 19 31 1016.4 1016.3 0.4
26/11:31am 13.0 3.9 7.0 67 2.9 NW 44 63 24 34 1016.4 1016.3 0.2
26/11:30am 12.9 3.8 6.9 67 2.9 NW 44 61 24 33 1016.5 1016.4 0.2
26/11:07am 12.7 4.6 7.0 68 2.8 NW 39 57 21 31 1016.6 1016.5 0.2
26/11:00am 12.5 4.4 7.0 69 2.7 NW 39 54 21 29 1016.6 1016.5 0.0
26/10:43am 12.0 3.2 7.1 72 2.4 NW 43 61 23 33 1016.4 1016.3 0.0
26/10:30am 11.5 2.6 7.0 74 2.2 NW 43 57 23 31 1016.5 1016.4 0.0
26/10:00am 10.7 3.0 7.2 79 1.7 NW 37 50 20 27 1016.5 1016.4 0.0
26/09:30am 9.6 1.8 6.7 82 1.4 NW 37 50 20 27 1016.4 1016.3 0.0
26/09:00am 8.5 2.5 7.0 90 0.7 NW 28 35 15 19 1016.5 1016.4 5.2
26/08:30am 7.5 1.2 5.8 89 0.8 NW 28 39 15 21 1016.4 1016.3 5.2
26/08:00am 7.7 2.0 6.6 93 0.5 WNW 26 39 14 21 1016.8 1016.7 4.8
26/07:30am 7.3 2.2 6.2 93 0.5 NW 22 32 12 17 1015.8 1015.6 4.4
26/07:00am 6.8 1.3 5.9 94 0.4 NNW 24 32 13 17 1015.5 1015.3 4.2
26/06:30am 7.2 2.6 6.5 95 0.3 NW 20 24 11 13 1015.4 1015.2 4.2
26/06:00am 7.1 2.6 5.9 92 0.5 NW 19 22 10 12 1015.5 1015.3 4.2
26/05:30am 7.8 2.0 6.3 90 0.7 NW 26 37 14 20 1015.4 1015.2 4.2
26/05:00am 7.8 2.8 6.6 92 0.6 NW 22 30 12 16 1015.1 1014.9 4.2
26/04:30am 7.8 3.5 7.1 95 0.3 NNW 19 22 10 12 1014.7 1014.5 4.2
26/04:00am 7.7 3.2 7.0 95 0.3 NNW 20 26 11 14 1014.5 1014.3 4.2
26/03:30am 8.5 4.1 7.6 94 0.4 NW 20 28 11 15 1015.0 1014.8 4.2
26/03:00am 8.5 5.1 7.6 94 0.4 SW 15 26 8 14 1015.3 1015.1 3.8
26/02:30am 8.2 3.9 6.8 91 0.7 NNW 19 28 10 15 1014.7 1014.5 3.8
26/02:00am 8.3 3.1 7.1 92 0.6 NNW 24 32 13 17 1014.7 1014.5 3.8
26/01:30am 8.4 3.2 7.3 93 0.5 NNW 24 30 13 16 1014.4 1014.2 3.8
26/01:00am 8.6 3.5 7.5 93 0.5 NW 24 30 13 16 1014.5 1014.3 3.8
26/12:30am 8.9 4.2 7.7 92 0.6 NW 22 28 12 15 1014.6 1014.4 3.8
26/12:00am 9.0 4.7 7.9 93 0.5 NNW 20 28 11 15 1014.6 1014.4 3.8
 
Date/Time
EDT
Temp
°C
App
Temp
°C
Dew
Point
Rel
Hum
%
Delta-T
°C
Wind Press
QNH
hPa
Press
MSL
hPa
Rain
since 9 am
mm
Dir
 
Spd
km/h
Gust
km/h
Spd
kts
Gust
kts
25/11:30pm 9.1 4.9 8.3 95 0.4 NNW 20 26 11 14 1014.5 1014.3 3.8
25/11:00pm 8.9 4.3 8.3 96 0.3 NNW 22 28 12 15 1014.7 1014.5 3.6
25/10:30pm 8.9 4.8 8.6 98 0.1 NW 20 28 11 15 1015.0 1014.8 3.4
25/10:00pm 9.4 5.4 8.9 97 0.2 NW 20 30 11 16 1015.2 1015.0 2.0
25/09:30pm 9.6 5.6 9.0 96 0.3 WNW 20 30 11 16 1014.7 1014.5 1.0
25/09:00pm 10.0 3.2 9.4 96 0.3 W 35 50 19 27 1014.4 1014.2 0.6
25/08:57pm 10.0 2.9 9.4 96 0.3 W 37 50 20 27 1014.3 1014.1 0.4
25/08:33pm 10.7 3.6 9.6 93 0.6 WSW 37 56 20 30 1014.0 1013.8 0.2
25/08:30pm 10.9 3.9 9.8 93 0.6 WSW 37 54 20 29 1014.0 1013.8 0.2
25/08:16pm 12.0 5.0 11.2 95 0.4 WSW 39 52 21 28 1013.6 1013.4 0.0
25/08:00pm 13.5 6.0 11.0 85 1.3 W 41 57 22 31 1012.7 1012.6 0.0
25/07:55pm 15.2 7.8 9.8 70 2.8 NW 39 57 21 31 1012.5 1012.4 0.0
25/07:51pm 17.8 10.5 4.7 42 6.3 NNW 32 52 17 28 1011.9 1011.8 0.0
25/07:30pm 17.9 12.0 4.1 40 6.5 NNW 24 35 13 19 1011.7 1011.6 0.0
25/07:00pm 18.2 11.6 4.0 39 6.7 NNW 28 39 15 21 1011.4 1011.3 0.0
25/06:30pm 18.4 12.1 3.5 37 7.0 NNW 26 33 14 18 1011.5 1011.4 0.0
25/06:00pm 19.1 11.6 3.7 36 7.3 NNW 32 39 17 21 1011.7 1011.6 0.0
25/05:30pm 19.8 12.2 3.9 35 7.6 NNW 33 46 18 25 1011.6 1011.5 0.0
25/05:07pm 19.1 12.0 3.3 35 7.4 NNW 30 50 16 27 1011.8 1011.7 0.0
25/05:00pm 19.5 11.8 3.6 35 7.5 NNW 33 44 18 24 1011.9 1011.8 0.0
25/04:30pm 20.8 14.0 5.2 36 7.7 NNW 30 43 16 23 1012.5 1012.4 0.0
25/04:00pm 19.7 13.4 3.8 35 7.6 NW 26 35 14 19 1013.0 1012.8 0.0
25/03:30pm 19.4 12.7 3.6 35 7.5 NNW 28 44 15 24 1013.3 1013.1 0.0
25/03:00pm 18.6 11.6 4.0 38 6.9 NNW 30 43 16 23 1013.9 1013.7 0.0
25/02:30pm 18.7 11.6 3.3 36 7.2 NNW 30 41 16 22 1014.3 1014.1 0.0
25/02:00pm 19.2 13.7 4.2 37 7.2 N 22 35 12 19 1014.9 1014.7 0.0
25/01:30pm 18.4 12.6 4.6 40 6.6 NNW 24 39 13 21 1015.5 1015.3 0.0
25/01:00pm 18.4 12.7 4.9 41 6.5 NNW 24 35 13 19 1016.4 1016.3 0.0
25/12:30pm 16.7 11.3 4.7 45 5.7 NNW 22 32 12 17 1016.9 1016.8 0.0
25/12:00pm 15.3 9.5 4.4 48 5.1 NNW 24 33 13 18 1017.3 1017.2 0.0
25/11:30am 14.7 9.0 4.7 51 4.7 N 24 33 13 18 1017.5 1017.4 0.0

Other Formats:

Comma delimited format used in spreadsheet applications
http://www.bom.gov.au/fwo/IDV60801/IDV60801.94837.axf

JavaScript Object Notation format (JSON) in row-major order
http://www.bom.gov.au/fwo/IDV60801/IDV60801.94837.json